createdAt,value
2019-04-10T00:04:59.164Z,14.95
2019-04-10T00:10:04.044Z,14.99
2019-04-10T00:15:10.009Z,14.90
2019-04-10T00:20:16.313Z,14.96
2019-04-10T00:25:21.938Z,15.17
2019-04-10T00:30:27.937Z,15.09
2019-04-10T00:35:35.079Z,14.48
2019-04-10T00:40:39.558Z,14.92
2019-04-10T00:45:45.972Z,14.87
2019-04-10T00:50:51.048Z,14.89
2019-04-10T00:55:57.073Z,15.13
2019-04-10T01:01:03.440Z,15.45
2019-04-10T01:06:09.050Z,15.38
2019-04-10T01:11:15.247Z,14.62
2019-04-10T01:16:21.037Z,14.72
2019-04-10T01:21:27.005Z,15.39
2019-04-10T01:26:32.995Z,15.40
2019-04-10T01:31:39.411Z,15.65
2019-04-10T01:36:44.513Z,15.15
2019-04-10T01:41:50.564Z,15.37
2019-04-10T01:46:57.055Z,15.33
2019-04-10T01:52:02.205Z,15.60
2019-04-10T01:57:08.233Z,15.75
2019-04-10T02:02:14.807Z,15.73
2019-04-10T02:07:20.196Z,15.53
2019-04-10T02:12:26.247Z,15.57
2019-04-10T02:17:30.808Z,16.26
2019-04-10T02:22:36.686Z,15.29
2019-04-10T02:27:42.763Z,16.33
2019-04-10T02:32:50.429Z,15.80
2019-04-10T02:37:56.093Z,16.06
2019-04-10T02:42:59.698Z,15.91
2019-04-10T02:48:06.451Z,16.11
2019-04-10T02:53:11.158Z,15.93
2019-04-10T02:58:18.700Z,15.99
2019-04-10T03:03:22.664Z,16.83
2019-04-10T03:08:47.574Z,16.53
2019-04-10T03:13:35.727Z,15.79
2019-04-10T03:18:39.672Z,16.74
2019-04-10T03:23:45.652Z,17.47
2019-04-10T03:28:51.644Z,15.98
2019-04-10T03:33:58.762Z,16.59
2019-04-10T03:39:05.134Z,16.34
2019-04-10T03:44:08.714Z,16.15
2019-04-10T03:49:15.715Z,17.14
2019-04-10T03:54:20.765Z,17.19
2019-04-10T03:59:26.375Z,17.66
2019-04-10T04:04:31.291Z,17.71
2019-04-10T04:09:37.759Z,18.10
2019-04-10T04:14:42.689Z,19.06
2019-04-10T04:19:48.692Z,17.73
2019-04-10T04:24:55.746Z,18.17
2019-04-10T04:30:00.201Z,18.02
2019-04-10T04:35:06.181Z,18.92
2019-04-10T04:40:13.149Z,19.20
2019-04-10T04:45:17.704Z,19.09
2019-04-10T04:50:24.703Z,17.25
2019-04-10T04:55:29.301Z,17.65
2019-04-10T05:00:35.417Z,17.38
2019-04-10T05:05:41.370Z,17.29
2019-04-10T05:10:47.479Z,18.19
2019-04-10T05:15:53.411Z,17.84
2019-04-10T05:20:59.428Z,18.42
2019-04-10T05:26:06.072Z,17.27
2019-04-10T05:31:10.937Z,18.40
2019-04-10T05:36:17.338Z,16.49
2019-04-10T05:41:23.275Z,16.90
2019-04-10T05:46:28.318Z,16.82
2019-04-10T05:51:34.267Z,17.90
2019-04-10T05:56:40.595Z,17.90
2019-04-10T06:01:46.231Z,18.13
2019-04-10T06:06:52.713Z,17.48
2019-04-10T06:11:58.363Z,16.70
2019-04-10T06:17:04.415Z,15.77
2019-04-10T06:22:11.219Z,16.53
2019-04-10T06:27:16.386Z,15.80
2019-04-10T06:32:21.453Z,15.33
2019-04-10T06:37:28.322Z,14.97
2019-04-10T06:42:44.851Z,14.49
2019-04-10T06:47:38.513Z,14.59
2019-04-10T06:52:45.066Z,14.06
2019-04-10T06:57:55.785Z,14.10
2019-04-10T07:02:56.687Z,13.76
2019-04-10T07:08:10.848Z,14.28
2019-04-10T07:13:10.427Z,14.16
2019-04-10T07:18:17.003Z,13.87
2019-04-10T07:23:24.129Z,14.22
2019-04-10T07:28:25.689Z,13.83
2019-04-10T07:33:30.917Z,12.56
2019-04-10T07:38:37.093Z,13.08
2019-04-10T07:43:42.400Z,12.20
2019-04-10T07:48:46.984Z,13.13
2019-04-10T07:53:52.967Z,12.12
2019-04-10T07:58:58.960Z,11.39
2019-04-10T08:04:06.218Z,13.11
2019-04-10T08:09:10.599Z,11.40
2019-04-10T08:14:16.861Z,11.23
2019-04-10T08:19:24.928Z,11.35
2019-04-10T08:24:28.080Z,11.06
2019-04-10T08:29:34.377Z,10.68
2019-04-10T08:34:40.094Z,10.49
2019-04-10T08:39:48.926Z,10.54
2019-04-10T08:44:52.159Z,9.76
2019-04-10T08:49:57.212Z,9.99
2019-04-10T08:55:03.846Z,9.75
2019-04-10T09:00:08.520Z,9.45
2019-04-10T09:05:14.644Z,9.59
2019-04-10T09:10:20.630Z,9.28
2019-04-10T09:15:26.745Z,9.43
2019-04-10T09:20:33.084Z,9.24
2019-04-10T09:25:39.445Z,10.04
2019-04-10T09:30:44.883Z,9.31
2019-04-10T09:35:50.853Z,9.79
2019-04-10T09:40:55.361Z,10.04
2019-04-10T09:46:02.285Z,9.08
2019-04-10T09:51:07.620Z,8.76
2019-04-10T09:56:12.307Z,9.24
2019-04-10T10:01:18.318Z,8.99
2019-04-10T10:06:30.192Z,9.09
2019-04-10T10:11:30.724Z,9.03
2019-04-10T10:16:35.870Z,9.21
2019-04-10T10:21:41.593Z,8.79
2019-04-10T10:26:47.589Z,9.51
2019-04-10T10:31:54.082Z,10.03
2019-04-10T10:37:00.042Z,9.15
2019-04-10T10:42:05.492Z,10.75
2019-04-10T10:47:10.144Z,10.20
2019-04-10T10:52:16.141Z,9.35
2019-04-10T10:57:22.769Z,10.91
2019-04-10T11:02:27.756Z,9.70
2019-04-10T11:07:35.139Z,9.67
2019-04-10T11:12:39.686Z,9.98
2019-04-10T11:17:46.105Z,8.42
2019-04-10T11:22:51.717Z,7.93
2019-04-10T11:27:58.442Z,9.84
2019-04-10T11:33:03.538Z,10.64
2019-04-10T11:38:09.258Z,9.32
2019-04-10T11:43:15.363Z,9.22
2019-04-10T11:48:22.876Z,9.79
2019-04-10T11:53:27.350Z,10.10
2019-04-10T11:58:33.710Z,9.62
2019-04-10T12:03:41.539Z,9.16
2019-04-10T12:09:08.281Z,10.22
2019-04-10T12:13:50.475Z,9.14
2019-04-10T12:18:56.385Z,9.67
2019-04-10T12:24:01.153Z,8.81
2019-04-10T12:29:06.640Z,9.20
2019-04-10T12:34:14.862Z,11.35
2019-04-10T12:39:18.378Z,9.30
2019-04-10T12:44:25.489Z,10.00
2019-04-10T12:49:31.530Z,9.61
2019-04-10T12:54:36.136Z,9.92
2019-04-10T12:59:42.127Z,9.13
2019-04-10T13:04:49.027Z,9.79
2019-04-10T13:09:53.999Z,8.98
2019-04-10T13:14:59.875Z,9.21
2019-04-10T13:20:07.254Z,8.88
2019-04-10T13:25:12.483Z,9.26
2019-04-10T13:30:18.675Z,8.85
2019-04-10T13:35:24.120Z,8.92
2019-04-10T13:40:29.907Z,8.49
2019-04-10T13:45:36.013Z,8.92
2019-04-10T13:50:43.110Z,7.88
2019-04-10T13:55:48.591Z,8.90
2019-04-10T14:00:53.610Z,8.00
2019-04-10T14:05:59.365Z,8.27
2019-04-10T14:11:05.409Z,8.55
2019-04-10T14:16:12.577Z,8.59
2019-04-10T14:21:17.284Z,9.06
2019-04-10T14:26:24.439Z,8.16
2019-04-10T14:31:28.946Z,7.46
2019-04-10T14:36:36.000Z,9.29
2019-04-10T14:41:40.774Z,8.94
2019-04-10T14:46:46.787Z,9.84
2019-04-10T14:51:53.053Z,9.38
2019-04-10T14:56:59.151Z,9.78
2019-04-10T15:02:06.314Z,10.68
2019-04-10T15:07:10.867Z,9.55
2019-04-10T15:12:16.939Z,10.00
2019-04-10T15:17:23.134Z,9.59
2019-04-10T15:22:29.309Z,9.98
2019-04-10T15:27:35.520Z,10.03
2019-04-10T15:32:42.131Z,10.08
2019-04-10T15:37:47.242Z,9.46
2019-04-10T15:42:54.242Z,10.32
2019-04-10T15:47:59.959Z,9.99
2019-04-10T15:53:04.383Z,9.58
2019-04-10T15:58:10.829Z,8.78
2019-04-10T16:03:17.506Z,8.95
2019-04-10T16:08:22.166Z,8.72
2019-04-10T16:13:28.272Z,8.28
2019-04-10T16:18:34.719Z,9.08
2019-04-10T16:23:40.107Z,9.25
2019-04-10T16:28:45.855Z,9.46
2019-04-10T16:33:52.501Z,9.24
2019-04-10T16:38:58.153Z,8.20
2019-04-10T16:44:04.616Z,8.50
2019-04-10T16:49:10.659Z,8.72
2019-04-10T16:54:17.609Z,8.50
2019-04-10T16:59:21.410Z,8.86
2019-04-10T17:04:26.322Z,8.93
2019-04-10T17:09:32.488Z,7.00
2019-04-10T17:14:39.780Z,8.53
2019-04-10T17:19:51.948Z,8.33
2019-04-10T17:24:49.601Z,8.03
2019-04-10T17:29:56.605Z,9.17
2019-04-10T17:35:01.230Z,7.82
2019-04-10T17:40:08.290Z,8.20
2019-04-10T17:45:12.815Z,7.86
2019-04-10T17:50:18.516Z,7.79
2019-04-10T17:55:25.348Z,7.92
2019-04-10T18:00:31.189Z,7.18
2019-04-10T18:05:35.521Z,7.89
2019-04-10T18:10:48.262Z,8.24
2019-04-10T18:15:48.276Z,7.16
2019-04-10T18:20:52.718Z,8.42
2019-04-10T18:25:58.813Z,8.44
2019-04-10T18:31:04.941Z,7.53
2019-04-10T18:36:11.334Z,8.79
2019-04-10T18:41:17.867Z,7.91
2019-04-10T18:46:23.897Z,8.29
2019-04-10T18:51:28.404Z,7.95
2019-04-10T18:56:35.373Z,7.04
2019-04-10T19:01:43.150Z,8.45
2019-04-10T19:06:49.710Z,8.73
2019-04-10T19:11:55.224Z,7.67
2019-04-10T19:17:02.352Z,8.23
2019-04-10T19:22:06.860Z,8.50
2019-04-10T19:27:12.897Z,8.61
2019-04-10T19:32:19.073Z,8.71
2019-04-10T19:37:25.598Z,7.35
2019-04-10T19:42:31.652Z,7.94
2019-04-10T19:47:38.737Z,8.31
2019-04-10T19:52:43.152Z,7.10
2019-04-10T19:57:49.859Z,7.64
2019-04-10T20:02:55.282Z,6.53
2019-04-10T20:08:01.648Z,8.43
2019-04-10T20:13:07.050Z,7.22
2019-04-10T20:18:13.052Z,8.06
2019-04-10T20:23:19.454Z,7.91
2019-04-10T20:28:25.069Z,7.07
2019-04-10T20:33:31.163Z,7.09
2019-04-10T20:38:37.211Z,7.96
2019-04-10T20:43:43.236Z,7.40
2019-04-10T20:48:49.287Z,7.33
2019-04-10T20:53:56.051Z,7.63
2019-04-10T20:59:01.522Z,6.61
2019-04-10T21:04:07.314Z,5.91
2019-04-10T21:09:12.003Z,7.02
2019-04-10T21:14:19.098Z,7.53
2019-04-10T21:19:24.742Z,7.64
2019-04-10T21:24:29.463Z,7.27
2019-04-10T21:29:36.248Z,7.41
2019-04-10T21:34:40.625Z,7.30
2019-04-10T21:39:46.693Z,7.33
2019-04-10T21:44:53.378Z,7.50
2019-04-10T21:49:58.241Z,7.34
2019-04-10T21:55:04.511Z,7.24
2019-04-10T22:00:10.358Z,6.97
2019-04-10T22:05:16.505Z,6.71
2019-04-10T22:10:22.414Z,6.90
2019-04-10T22:15:28.860Z,6.82
2019-04-10T22:20:33.972Z,6.55
2019-04-10T22:25:40.001Z,6.23
2019-04-10T22:30:45.986Z,6.66
2019-04-10T22:35:52.551Z,6.25
2019-04-10T22:40:58.082Z,6.91
2019-04-10T22:46:03.152Z,7.10
2019-04-10T22:51:09.677Z,7.42
2019-04-10T22:56:15.065Z,8.17
2019-04-10T23:01:21.045Z,7.88
2019-04-10T23:06:27.102Z,7.54
2019-04-10T23:11:37.643Z,7.10
2019-04-10T23:16:38.485Z,6.99
2019-04-10T23:21:44.947Z,6.97
2019-04-10T23:26:50.579Z,7.30
2019-04-10T23:31:56.588Z,7.44
2019-04-10T23:37:02.598Z,7.80
2019-04-10T23:42:08.616Z,7.83
2019-04-10T23:47:14.619Z,8.38
2019-04-10T23:52:20.606Z,7.99
2019-04-10T23:57:27.428Z,7.81
